Roanoke, Virginia
Current Conditions -  °F | °C
As of 10:54 PM on Saturday 25 Oct 2014 (Local Time) from KROA Reporting Station
Clear Clear  
Wind Chill: 17°   Ceiling: Unl
Heat Index: 17°   Visibility: 10mi
Dew Point:   Wind: 7mph
Humidity: 58%   Direction: 260°W
Pressure: 29.88"   Gusts: NA
Location:  37.27°N, 79.94°W
Report Text: KROA 260254Z 26006KT 10SM CLR 17/09 A2988 RMK AO2 SLP112 T01720089 56004
Loading
Personal Weather Stations






























Interactive Weather Map New forecast layout! Learn more

10-Day Weather Forecast

Advertisements
Track Severe Weather on mobile